Time;durP1;ratioP1;P1;durP2;ratioP2;P2;SDS_P1;SDS_P2;PMS_P1;PMS_P2;Temp;Humidity;BMP_temperature;BMP_pressure;BME280_temperature;BME280_humidity;BME280_pressure;Samples;Min_cycle;Max_cycle;Signal;HPM_P1;HPM_P2
2022/03/30 00:00:18;;;;;;;;;;;;;;;;;;5138347;28;19911;-73
2022/03/30 00:02:44;;;;;;;;;;;;;;;;;;5138395;28;19907;-73
2022/03/30 00:05:09;;;;;;;;;;;;;;;;;;5138415;28;19996;-73
2022/03/30 00:07:35;;;;;;;;;;;;;;;;;;5138398;28;19907;-73
2022/03/30 00:10:01;;;;;;;;;;;;;;;;;;5119729;28;19918;-73
2022/03/30 00:12:26;;;;;;;;;;;;;;;;;;5119953;28;19931;-73
2022/03/30 00:14:52;;;;;;;;;;;;;;;;;;5120072;28;19929;-73
2022/03/30 00:17:18;;;;;;;;;;;;;;;;;;5138185;28;20002;-73
2022/03/30 00:19:43;;;;;;;;;;;;;;;;;;5120061;28;19907;-73
2022/03/30 00:22:09;;;;;;;;;;;;;;;;;;5138009;28;19915;-73
2022/03/30 00:24:35;;;;;;;;;;;;;;;;;;5138429;28;19907;-73
2022/03/30 00:27:02;;;;;;;;;;;;;;;;;;5138203;28;19915;-73
2022/03/30 00:29:28;;;;;;;;;;;;;;;;;;5138156;28;20228;-73
2022/03/30 00:31:53;;;;;;;;;;;;;;;;;;5138046;28;19915;-73
2022/03/30 00:34:19;;;;;;;;;;;;;;;;;;5138138;28;20292;-73
2022/03/30 00:36:45;;;;;;;;;;;;;;;;;;5138095;28;20334;-73
2022/03/30 00:39:10;;;;;;;;;;;;;;;;;;5137911;28;19908;-73
2022/03/30 00:41:36;;;;;;;;;;;;;;;;;;5138077;28;19908;-73
2022/03/30 00:44:02;;;;;;;;;;;;;;;;;;5119826;28;19914;-73
2022/03/30 00:46:28;;;;;;;;;;;;;;;;;;5137984;28;19908;-72
2022/03/30 00:48:53;;;;;;;;;;;;;;;;;;5138465;28;19920;-72
2022/03/30 00:51:20;;;;;;;;;;;;;;;;;;5137278;28;20267;-72
2022/03/30 00:53:46;;;;;;;;;;;;;;;;;;5138223;27;19907;-72
2022/03/30 00:56:11;;;;;;;;;;;;;;;;;;5123768;27;19977;-73
2022/03/30 00:58:37;;;;;;;;;;;;;;;;;;5141450;27;19908;-73
2022/03/30 01:01:03;;;;;;;;;;;;;;;;;;5141348;27;19908;-73
2022/03/30 01:03:29;;;;;;;;;;;;;;;;;;5140798;27;19911;-73
2022/03/30 01:05:54;;;;;;;;;;;;;;;;;;5123204;27;19907;-73
2022/03/30 01:08:20;;;;;;;;;;;;;;;;;;5141510;27;20272;-73
2022/03/30 01:10:46;;;;;;;;;;;;;;;;;;5141176;27;19915;-73
2022/03/30 01:13:12;;;;;;;;;;;;;;;;;;5122721;27;19922;-73
2022/03/30 01:15:38;;;;;;;;;;;;;;;;;;5141443;27;19908;-73
2022/03/30 01:18:04;;;;;;;;;;;;;;;;;;5140451;27;19908;-73
2022/03/30 01:20:30;;;;;;;;;;;;;;;;;;5122040;27;20354;-73
2022/03/30 01:22:56;;;;;;;;;;;;;;;;;;5139538;27;19908;-72
2022/03/30 01:25:23;;;;;;;;;;;;;;;;;;5139729;27;20235;-72
2022/03/30 01:27:49;;;;;;;;;;;;;;;;;;5139453;27;19915;-73
2022/03/30 01:32:59;;;;;;;;;;;;;;;;;;5138280;27;19918;-73
2022/03/30 01:35:24;;;;;;;;;;;;;;;;;;5100940;28;20205;-74
2022/03/30 01:37:50;;;;;;;;;;;;;;;;;;5136487;27;19939;-73
2022/03/30 01:40:16;;;;;;;;;;;;;;;;;;5118099;28;19908;-74
2022/03/30 01:42:42;;;;;;;;;;;;;;;;;;5118656;27;19915;-73
2022/03/30 01:45:11;;;;;;;;;;;;;;;;;;5100735;28;19907;-73
2022/03/30 01:47:38;;;;;;;;;;;;;;;;;;5135755;27;19911;-73
2022/03/30 01:50:05;;;;;;;;;;;;;;;;;;5138582;27;19966;-73
2022/03/30 01:52:31;;;;;;;;;;;;;;;;;;5139268;27;19942;-73
2022/03/30 01:54:56;;;;;;;;;;;;;;;;;;5138772;27;20276;-73
2022/03/30 01:57:23;;;;;;;;;;;;;;;;;;5121089;27;19908;-73
2022/03/30 01:59:49;;;;;;;;;;;;;;;;;;5139006;27;19919;-72
2022/03/30 02:02:15;;;;;;;;;;;;;;;;;;5139614;27;20269;-73
2022/03/30 02:04:41;;;;;;;;;;;;;;;;;;5138578;27;20043;-73
2022/03/30 02:07:10;;;;;;;;;;;;;;;;;;5109863;22;20022;-73
2022/03/30 02:09:36;;;;;;;;;;;;;;;;;;5116777;28;19912;-72
2022/03/30 02:12:02;;;;;;;;;;;;;;;;;;5117197;28;19938;-73
2022/03/30 02:14:27;;;;;;;;;;;;;;;;;;5117472;28;20297;-73
2022/03/30 02:16:53;;;;;;;;;;;;;;;;;;5118547;28;19908;-73
2022/03/30 02:19:19;;;;;;;;;;;;;;;;;;5100477;28;19908;-72
2022/03/30 02:21:45;;;;;;;;;;;;;;;;;;5118904;28;19916;-72
2022/03/30 02:24:11;;;;;;;;;;;;;;;;;;5100784;28;19990;-73
2022/03/30 02:26:37;;;;;;;;;;;;;;;;;;5100536;28;19940;-73
2022/03/30 02:29:02;;;;;;;;;;;;;;;;;;5118749;28;19933;-73
2022/03/30 02:31:29;;;;;;;;;;;;;;;;;;5100116;28;19920;-73
2022/03/30 02:33:54;;;;;;;;;;;;;;;;;;5116157;28;19911;-73
2022/03/30 02:36:20;;;;;;;;;;;;;;;;;;5117886;28;19908;-73
2022/03/30 02:38:47;;;;;;;;;;;;;;;;;;5115810;28;19907;-74
2022/03/30 02:41:13;;;;;;;;;;;;;;;;;;5118280;28;20266;-74
2022/03/30 02:43:39;;;;;;;;;;;;;;;;;;5099679;28;20306;-73
2022/03/30 02:46:05;;;;;;;;;;;;;;;;;;5117402;28;20206;-73
2022/03/30 02:48:32;;;;;;;;;;;;;;;;;;5098870;28;19908;-75
2022/03/30 02:51:01;;;;;;;;;;;;;;;;;;5116219;28;19946;-73
2022/03/30 02:53:28;;;;;;;;;;;;;;;;;;5117061;28;19907;-73
2022/03/30 02:55:54;;;;;;;;;;;;;;;;;;5097334;28;19935;-73
2022/03/30 02:58:20;;;;;;;;;;;;;;;;;;5113672;28;20320;-73
2022/03/30 03:00:46;;;;;;;;;;;;;;;;;;5114822;28;19912;-74
2022/03/30 03:03:12;;;;;;;;;;;;;;;;;;5097847;28;19982;-73
2022/03/30 03:05:38;;;;;;;;;;;;;;;;;;5093571;28;19965;-73
2022/03/30 03:08:04;;;;;;;;;;;;;;;;;;5096883;28;20298;-74
2022/03/30 03:10:29;;;;;;;;;;;;;;;;;;5097586;28;19916;-74
2022/03/30 03:12:56;;;;;;;;;;;;;;;;;;5117803;28;19912;-74
2022/03/30 03:15:25;;;;;;;;;;;;;;;;;;5116285;28;19954;-74
2022/03/30 03:17:51;;;;;;;;;;;;;;;;;;5099330;28;19907;-73
2022/03/30 03:20:17;;;;;;;;;;;;;;;;;;5116505;28;19946;-73
2022/03/30 03:22:43;;;;;;;;;;;;;;;;;;5099469;28;19907;-75
2022/03/30 03:25:08;;;;;;;;;;;;;;;;;;5098596;28;19969;-73
2022/03/30 03:27:34;;;;;;;;;;;;;;;;;;5098752;28;19908;-73
2022/03/30 03:30:01;;;;;;;;;;;;;;;;;;5117808;28;20274;-73
2022/03/30 03:32:27;;;;;;;;;;;;;;;;;;5098135;28;20301;-73
2022/03/30 03:34:53;;;;;;;;;;;;;;;;;;5115977;28;19949;-72
2022/03/30 03:37:19;;;;;;;;;;;;;;;;;;5117578;28;19908;-73
2022/03/30 03:39:48;;;;;;;;;;;;;;;;;;5116791;28;19938;-73
2022/03/30 03:42:19;;;;;;;;;;;;;;;;;;5098861;28;19994;-73
2022/03/30 03:44:45;;;;;;;;;;;;;;;;;;5116136;28;20420;-72
2022/03/30 03:47:11;;;;;;;;;;;;;;;;;;5081374;28;19908;-73
2022/03/30 03:49:41;;;;;;;;;;;;;;;;;;5081402;28;20324;-72
2022/03/30 03:52:07;;;;;;;;;;;;;;;;;;5104522;22;19956;-73
2022/03/30 03:54:33;;;;;;;;;;;;;;;;;;5115394;28;19915;-73
2022/03/30 03:56:59;;;;;;;;;;;;;;;;;;5081071;28;19912;-73
2022/03/30 03:59:24;;;;;;;;;;;;;;;;;;5116128;28;19912;-73
2022/03/30 04:01:51;;;;;;;;;;;;;;;;;;5081629;28;19968;-73
2022/03/30 04:04:17;;;;;;;;;;;;;;;;;;5081880;28;19908;-72
2022/03/30 04:06:43;;;;;;;;;;;;;;;;;;5080742;28;19908;-72
2022/03/30 04:09:09;;;;;;;;;;;;;;;;;;5087441;22;19924;-73
2022/03/30 04:11:35;;;;;;;;;;;;;;;;;;5080014;28;20259;-72
2022/03/30 04:14:00;;;;;;;;;;;;;;;;;;5095241;28;19918;-72
2022/03/30 04:16:26;;;;;;;;;;;;;;;;;;5096175;28;20096;-73
2022/03/30 04:18:53;;;;;;;;;;;;;;;;;;5078940;28;19912;-72
2022/03/30 04:21:18;;;;;;;;;;;;;;;;;;5115063;28;19915;-73
2022/03/30 04:23:44;;;;;;;;;;;;;;;;;;5114120;28;20020;-73
2022/03/30 04:26:10;;;;;;;;;;;;;;;;;;5112292;28;20297;-72
2022/03/30 04:28:40;;;;;;;;;;;;;;;;;;5093008;28;19918;-73
2022/03/30 04:31:06;;;;;;;;;;;;;;;;;;5097992;28;20124;-73
2022/03/30 04:33:32;;;;;;;;;;;;;;;;;;5117225;28;19907;-73
2022/03/30 04:35:57;;;;;;;;;;;;;;;;;;5116187;28;19931;-74
2022/03/30 04:38:23;;;;;;;;;;;;;;;;;;5100317;28;19908;-74
2022/03/30 04:40:49;;;;;;;;;;;;;;;;;;5098914;28;19943;-72
2022/03/30 04:43:15;;;;;;;;;;;;;;;;;;5082719;28;19907;-73
2022/03/30 04:45:41;;;;;;;;;;;;;;;;;;5100758;28;19964;-72
2022/03/30 04:48:07;;;;;;;;;;;;;;;;;;5125193;22;20237;-72
2022/03/30 04:50:33;;;;;;;;;;;;;;;;;;5101093;28;20332;-72
2022/03/30 04:52:58;;;;;;;;;;;;;;;;;;5119324;28;20044;-74
2022/03/30 04:55:24;;;;;;;;;;;;;;;;;;5126432;22;19923;-73
2022/03/30 04:57:50;;;;;;;;;;;;;;;;;;5121062;27;19943;-74
2022/03/30 05:00:16;;;;;;;;;;;;;;;;;;5138609;27;19969;-73
2022/03/30 05:02:43;;;;;;;;;;;;;;;;;;5121432;27;20321;-74
2022/03/30 05:05:10;;;;;;;;;;;;;;;;;;5102584;27;20092;-73
2022/03/30 05:07:41;;;;;;;;;;;;;;;;;;5119925;27;19907;-73
2022/03/30 05:10:07;;;;;;;;;;;;;;;;;;5138067;27;19952;-74
2022/03/30 05:12:34;;;;;;;;;;;;;;;;;;5102668;27;20293;-71
2022/03/30 05:15:00;;;;;;;;;;;;;;;;;;5121681;27;19915;-74
2022/03/30 05:17:27;;;;;;;;;;;;;;;;;;5105696;27;19907;-76
2022/03/30 05:19:54;;;;;;;;;;;;;;;;;;5104030;27;19943;-72
2022/03/30 05:22:20;;;;;;;;;;;;;;;;;;5103219;27;20196;-72
2022/03/30 05:24:48;;;;;;;;;;;;;;;;;;5120317;27;20215;-74
2022/03/30 05:27:15;;;;;;;;;;;;;;;;;;5138489;27;19912;-74
2022/03/30 05:29:41;;;;;;;;;;;;;;;;;;5120475;27;20252;-72
2022/03/30 05:32:06;;;;;;;;;;;;;;;;;;5138256;27;19922;-73
2022/03/30 05:34:32;;;;;;;;;;;;;;;;;;5140233;27;19912;-73
2022/03/30 05:37:00;;;;;;;;;;;;;;;;;;5122770;27;19907;-72
2022/03/30 05:39:26;;;;;;;;;;;;;;;;;;5104326;27;19907;-73
2022/03/30 05:41:52;;;;;;;;;;;;;;;;;;5102943;27;19911;-72
2022/03/30 05:44:18;;;;;;;;;;;;;;;;;;5103659;27;19907;-73
2022/03/30 05:46:46;;;;;;;;;;;;;;;;;;5103536;27;19911;-73
2022/03/30 05:49:12;;;;;;;;;;;;;;;;;;5102764;27;19911;-73
2022/03/30 05:51:38;;;;;;;;;;;;;;;;;;5104324;27;19926;-72
2022/03/30 05:54:03;;;;;;;;;;;;;;;;;;5120552;27;20330;-75
2022/03/30 05:59:15;;;;;;;;;;;;;;;;;;5136731;27;20414;-71
2022/03/30 06:01:43;;;;;;;;;;;;;;;;;;5137316;27;20271;-73
2022/03/30 06:04:09;;;;;;;;;;;;;;;;;;5101760;27;20186;-72
2022/03/30 06:06:34;;;;;;;;;;;;;;;;;;5119181;27;20373;-73
2022/03/30 06:09:00;;;;;;;;;;;;;;;;;;5137881;27;19907;-74
2022/03/30 06:11:26;;;;;;;;;;;;;;;;;;5120356;27;20151;-73
2022/03/30 06:13:52;;;;;;;;;;;;;;;;;;5119181;27;19911;-73
2022/03/30 06:16:18;;;;;;;;;;;;;;;;;;5118926;27;19908;-73
2022/03/30 06:18:44;;;;;;;;;;;;;;;;;;5102616;27;19957;-73
2022/03/30 06:21:10;;;;;;;;;;;;;;;;;;5118210;27;19911;-73
2022/03/30 06:23:36;;;;;;;;;;;;;;;;;;5100902;27;20012;-73
2022/03/30 06:26:02;;;;;;;;;;;;;;;;;;5119233;27;19911;-73
2022/03/30 06:28:29;;;;;;;;;;;;;;;;;;5102652;27;19907;-72
2022/03/30 06:30:55;;;;;;;;;;;;;;;;;;5102719;27;19966;-72
2022/03/30 06:33:21;;;;;;;;;;;;;;;;;;5137115;27;19915;-73
2022/03/30 06:35:51;;;;;;;;;;;;;;;;;;5120571;27;19915;-74
2022/03/30 06:38:17;;;;;;;;;;;;;;;;;;5119634;27;20198;-73
2022/03/30 06:40:46;;;;;;;;;;;;;;;;;;5102948;27;19956;-73
2022/03/30 06:43:12;;;;;;;;;;;;;;;;;;5137732;27;19915;-71
2022/03/30 06:45:38;;;;;;;;;;;;;;;;;;5136927;27;19960;-72
2022/03/30 06:48:05;;;;;;;;;;;;;;;;;;5118746;27;20331;-73
2022/03/30 06:50:32;;;;;;;;;;;;;;;;;;5136458;27;19940;-73
2022/03/30 06:52:58;;;;;;;;;;;;;;;;;;5117891;27;19954;-72
2022/03/30 06:55:24;;;;;;;;;;;;;;;;;;5118903;27;19951;-72
2022/03/30 06:57:50;;;;;;;;;;;;;;;;;;5102807;27;20201;-73
2022/03/30 07:00:17;;;;;;;;;;;;;;;;;;5118807;27;19986;-72
2022/03/30 07:02:43;;;;;;;;;;;;;;;;;;5101372;27;19942;-72
2022/03/30 07:05:09;;;;;;;;;;;;;;;;;;5137983;27;20395;-71
2022/03/30 07:10:20;;;;;;;;;;;;;;;;;;5119557;27;19962;-73
2022/03/30 07:12:46;;;;;;;;;;;;;;;;;;5138648;27;19912;-73
2022/03/30 07:15:12;;;;;;;;;;;;;;;;;;5136920;27;19922;-73
2022/03/30 07:17:37;;;;;;;;;;;;;;;;;;5138266;27;20278;-71
2022/03/30 07:20:05;;;;;;;;;;;;;;;;;;5139018;27;19908;-72
2022/03/30 07:22:32;;;;;;;;;;;;;;;;;;5120124;27;20041;-72
2022/03/30 07:24:58;;;;;;;;;;;;;;;;;;5135915;27;19915;-71
2022/03/30 07:27:23;;;;;;;;;;;;;;;;;;5117612;27;19907;-71
2022/03/30 07:29:49;;;;;;;;;;;;;;;;;;5118298;27;20002;-72
2022/03/30 07:32:15;;;;;;;;;;;;;;;;;;5136187;27;20012;-71
2022/03/30 07:34:41;;;;;;;;;;;;;;;;;;5136365;27;19915;-72
2022/03/30 07:37:06;;;;;;;;;;;;;;;;;;5134469;27;20248;-72
2022/03/30 07:39:32;;;;;;;;;;;;;;;;;;5117958;27;19934;-71
2022/03/30 07:41:58;;;;;;;;;;;;;;;;;;5135937;27;19911;-72
2022/03/30 07:44:24;;;;;;;;;;;;;;;;;;5116862;28;19965;-71
2022/03/30 07:46:50;;;;;;;;;;;;;;;;;;5098733;27;20023;-71
2022/03/30 07:49:16;;;;;;;;;;;;;;;;;;5136101;27;20292;-71
2022/03/30 07:51:41;;;;;;;;;;;;;;;;;;5116927;27;20189;-71
2022/03/30 07:54:07;;;;;;;;;;;;;;;;;;5135122;27;20208;-71
2022/03/30 07:56:34;;;;;;;;;;;;;;;;;;5117708;28;19998;-72
2022/03/30 07:59:00;;;;;;;;;;;;;;;;;;5112920;28;19990;-72
2022/03/30 08:01:26;;;;;;;;;;;;;;;;;;5117609;28;19908;-72
2022/03/30 08:03:52;;;;;;;;;;;;;;;;;;5104076;27;20122;-71
2022/03/30 08:06:17;;;;;;;;;;;;;;;;;;5121391;27;20227;-71
2022/03/30 08:08:43;;;;;;;;;;;;;;;;;;5140155;27;19908;-72
2022/03/30 08:11:09;;;;;;;;;;;;;;;;;;5106289;27;19923;-72
2022/03/30 08:13:36;;;;;;;;;;;;;;;;;;5105525;27;20205;-72
2022/03/30 08:16:02;;;;;;;;;;;;;;;;;;5122542;27;19915;-71
2022/03/30 08:18:28;;;;;;;;;;;;;;;;;;5122945;27;20301;-72
2022/03/30 08:23:38;;;;;;;;;;;;;;;;;;5141611;27;20362;-72
2022/03/30 08:26:04;;;;;;;;;;;;;;;;;;5141061;27;19907;-72
2022/03/30 08:28:30;;;;;;;;;;;;;;;;;;5141967;27;19908;-72
2022/03/30 08:30:56;;;;;;;;;;;;;;;;;;5122498;27;19951;-73
2022/03/30 08:33:26;;;;;;;;;;;;;;;;;;5121623;27;19911;-72
2022/03/30 08:35:52;;;;;;;;;;;;;;;;;;5141006;27;19912;-72
2022/03/30 08:38:18;;;;;;;;;;;;;;;;;;5122959;27;19919;-72
2022/03/30 08:40:44;;;;;;;;;;;;;;;;;;5122917;27;19907;-72
2022/03/30 08:43:10;;;;;;;;;;;;;;;;;;5141085;27;19919;-73
2022/03/30 08:45:35;;;;;;;;;;;;;;;;;;5141114;27;19907;-72
2022/03/30 08:48:01;;;;;;;;;;;;;;;;;;5140272;27;20294;-72
2022/03/30 08:50:27;;;;;;;;;;;;;;;;;;5140418;27;19970;-72
2022/03/30 08:52:55;;;;;;;;;;;;;;;;;;5140284;27;19963;-73
2022/03/30 08:55:20;;;;;;;;;;;;;;;;;;5141665;27;20001;-72
2022/03/30 08:57:46;;;;;;;;;;;;;;;;;;5122098;27;19939;-72
2022/03/30 09:00:12;;;;;;;;;;;;;;;;;;5140361;27;19911;-73
2022/03/30 09:02:38;;;;;;;;;;;;;;;;;;5140981;27;19965;-72
2022/03/30 09:05:04;;;;;;;;;;;;;;;;;;5140245;27;19966;-72
2022/03/30 09:07:30;;;;;;;;;;;;;;;;;;5140314;27;19997;-72
2022/03/30 09:09:55;;;;;;;;;;;;;;;;;;5121628;27;20047;-74
2022/03/30 09:12:21;;;;;;;;;;;;;;;;;;5140173;27;20017;-72
2022/03/30 09:14:47;;;;;;;;;;;;;;;;;;5139539;27;19971;-72
2022/03/30 09:17:13;;;;;;;;;;;;;;;;;;5139816;27;19915;-73
2022/03/30 09:19:42;;;;;;;;;;;;;;;;;;5140254;27;20006;-72
2022/03/30 09:22:08;;;;;;;;;;;;;;;;;;5141277;27;20354;-73
2022/03/30 09:24:33;;;;;;;;;;;;;;;;;;5122363;27;19907;-72
2022/03/30 09:26:59;;;;;;;;;;;;;;;;;;5142152;27;19907;-72
2022/03/30 09:29:25;;;;;;;;;;;;;;;;;;5141931;27;20236;-72
2022/03/30 09:31:50;;;;;;;;;;;;;;;;;;5139986;27;20313;-72
2022/03/30 09:34:16;;;;;;;;;;;;;;;;;;5140357;27;19935;-73
2022/03/30 09:36:42;;;;;;;;;;;;;;;;;;5140597;27;19986;-71
2022/03/30 09:39:08;;;;;;;;;;;;;;;;;;5122121;27;19908;-72
2022/03/30 09:41:34;;;;;;;;;;;;;;;;;;5140161;27;19908;-72
2022/03/30 09:43:59;;;;;;;;;;;;;;;;;;5104891;27;19914;-73
2022/03/30 09:46:25;;;;;;;;;;;;;;;;;;5121853;27;19907;-72
2022/03/30 09:48:52;;;;;;;;;;;;;;;;;;5139980;27;19948;-72
2022/03/30 09:51:18;;;;;;;;;;;;;;;;;;5104929;27;19916;-72
2022/03/30 09:53:44;;;;;;;;;;;;;;;;;;5139998;27;20302;-72
2022/03/30 09:56:10;;;;;;;;;;;;;;;;;;5121383;27;19937;-72
2022/03/30 09:58:35;;;;;;;;;;;;;;;;;;5139747;27;20194;-73
2022/03/30 10:01:01;;;;;;;;;;;;;;;;;;5139373;27;19912;-72
2022/03/30 10:03:30;;;;;;;;;;;;;;;;;;5139792;27;19952;-72
2022/03/30 10:05:55;;;;;;;;;;;;;;;;;;5140082;27;19933;-71
2022/03/30 10:08:21;;;;;;;;;;;;;;;;;;5139320;27;19939;-71
2022/03/30 10:10:47;;;;;;;;;;;;;;;;;;5139201;27;19923;-71
2022/03/30 10:13:13;;;;;;;;;;;;;;;;;;5121303;27;19918;-72
2022/03/30 10:15:39;;;;;;;;;;;;;;;;;;5139351;27;19930;-72
2022/03/30 10:18:05;;;;;;;;;;;;;;;;;;5121382;27;19939;-72
2022/03/30 10:20:31;;;;;;;;;;;;;;;;;;5139365;27;19915;-72
2022/03/30 10:22:57;;;;;;;;;;;;;;;;;;5121399;27;19907;-72
2022/03/30 10:25:23;;;;;;;;;;;;;;;;;;5121274;27;20217;-72
2022/03/30 10:27:48;;;;;;;;;;;;;;;;;;5138094;27;19908;-72
2022/03/30 10:30:14;;;;;;;;;;;;;;;;;;5138963;27;19907;-72
2022/03/30 10:32:40;;;;;;;;;;;;;;;;;;5139847;27;19911;-72
2022/03/30 10:35:05;;;;;;;;;;;;;;;;;;5139701;27;19910;-72
2022/03/30 10:37:33;;;;;;;;;;;;;;;;;;5139839;27;20002;-72
2022/03/30 10:39:59;;;;;;;;;;;;;;;;;;5139840;27;19911;-72
2022/03/30 10:42:25;;;;;;;;;;;;;;;;;;5139650;27;20009;-72
2022/03/30 10:44:51;;;;;;;;;;;;;;;;;;5139665;27;19952;-72
2022/03/30 10:47:17;;;;;;;;;;;;;;;;;;5139534;27;19912;-72
2022/03/30 10:49:42;;;;;;;;;;;;;;;;;;5139471;27;20289;-73
2022/03/30 10:52:08;;;;;;;;;;;;;;;;;;5140517;27;19938;-72
2022/03/30 10:54:34;;;;;;;;;;;;;;;;;;5139713;27;19919;-72
2022/03/30 10:56:59;;;;;;;;;;;;;;;;;;5139441;27;19994;-71
2022/03/30 10:59:25;;;;;;;;;;;;;;;;;;5138713;27;19907;-72
2022/03/30 11:01:51;;;;;;;;;;;;;;;;;;5139325;27;19956;-72
2022/03/30 11:04:17;;;;;;;;;;;;;;;;;;5138768;27;19915;-72
2022/03/30 11:06:43;;;;;;;;;;;;;;;;;;5138573;27;20274;-72
2022/03/30 11:09:08;;;;;;;;;;;;;;;;;;5139076;27;19947;-72
2022/03/30 11:11:44;;;;;;;;;;;;;;;;;;5138540;27;20236;-72
2022/03/30 11:14:10;;;;;;;;;;;;;;;;;;5139131;27;19908;-72
2022/03/30 11:16:36;;;;;;;;;;;;;;;;;;5139081;27;19914;-72
2022/03/30 11:19:02;;;;;;;;;;;;;;;;;;5139099;27;19960;-72
2022/03/30 11:21:28;;;;;;;;;;;;;;;;;;5138940;27;19943;-72
2022/03/30 11:23:55;;;;;;;;;;;;;;;;;;5139009;27;19946;-72
2022/03/30 11:26:21;;;;;;;;;;;;;;;;;;5120593;27;19911;-72
2022/03/30 11:28:47;;;;;;;;;;;;;;;;;;5138871;27;20074;-72
2022/03/30 11:31:12;;;;;;;;;;;;;;;;;;5138280;27;20285;-72
2022/03/30 11:33:38;;;;;;;;;;;;;;;;;;5138089;27;20372;-72
2022/03/30 11:36:04;;;;;;;;;;;;;;;;;;5120468;27;19961;-73
2022/03/30 11:38:29;;;;;;;;;;;;;;;;;;5138486;27;19907;-73
2022/03/30 11:40:56;;;;;;;;;;;;;;;;;;5120238;27;20297;-72
2022/03/30 11:43:23;;;;;;;;;;;;;;;;;;5138139;27;20238;-72
2022/03/30 11:45:50;;;;;;;;;;;;;;;;;;5138720;27;19907;-72
2022/03/30 11:48:16;;;;;;;;;;;;;;;;;;5138887;27;20315;-72
2022/03/30 11:50:42;;;;;;;;;;;;;;;;;;5120081;27;19977;-72
2022/03/30 11:53:08;;;;;;;;;;;;;;;;;;5138673;27;19952;-72
2022/03/30 11:55:35;;;;;;;;;;;;;;;;;;5138332;27;19946;-72
2022/03/30 11:58:01;;;;;;;;;;;;;;;;;;5138348;27;19907;-72
2022/03/30 12:00:26;;;;;;;;;;;;;;;;;;5138059;27;19946;-72
2022/03/30 12:02:58;;;;;;;;;;;;;;;;;;5137640;28;20527;-72
2022/03/30 12:05:23;;;;;;;;;;;;;;;;;;5120099;28;19907;-72
2022/03/30 12:07:49;;;;;;;;;;;;;;;;;;5138561;28;19907;-72
2022/03/30 12:10:15;;;;;;;;;;;;;;;;;;5138579;28;19946;-72
2022/03/30 12:12:41;;;;;;;;;;;;;;;;;;5138767;28;19952;-72
2022/03/30 12:15:07;;;;;;;;;;;;;;;;;;5138591;28;20216;-72
2022/03/30 12:17:33;;;;;;;;;;;;;;;;;;5137869;28;19911;-72
2022/03/30 12:20:00;;;;;;;;;;;;;;;;;;5138477;28;19911;-72
2022/03/30 12:22:25;;;;;;;;;;;;;;;;;;5138426;28;19907;-72
2022/03/30 12:24:52;;;;;;;;;;;;;;;;;;5138375;28;19914;-72
2022/03/30 12:27:17;;;;;;;;;;;;;;;;;;5120409;28;19914;-72
2022/03/30 12:29:46;;;;;;;;;;;;;;;;;;5138610;28;19907;-72
2022/03/30 12:32:13;;;;;;;;;;;;;;;;;;5138736;28;19923;-72
2022/03/30 12:34:40;;;;;;;;;;;;;;;;;;5138357;28;19907;-72
2022/03/30 12:37:06;;;;;;;;;;;;;;;;;;5138269;28;19915;-72
2022/03/30 12:39:32;;;;;;;;;;;;;;;;;;5138102;28;19907;-72
2022/03/30 12:41:58;;;;;;;;;;;;;;;;;;5120151;28;19908;-72
2022/03/30 12:44:24;;;;;;;;;;;;;;;;;;5138364;28;19908;-72
2022/03/30 12:46:52;;;;;;;;;;;;;;;;;;5137895;28;19946;-72
2022/03/30 12:49:17;;;;;;;;;;;;;;;;;;5137945;27;20309;-72
2022/03/30 12:51:43;;;;;;;;;;;;;;;;;;5140977;27;19921;-72
2022/03/30 12:54:09;;;;;;;;;;;;;;;;;;5142534;27;20345;-72
2022/03/30 12:56:35;;;;;;;;;;;;;;;;;;5142053;27;19952;-72
2022/03/30 12:59:01;;;;;;;;;;;;;;;;;;5142058;27;19907;-72
2022/03/30 13:01:26;;;;;;;;;;;;;;;;;;5142237;27;19908;-72
2022/03/30 13:03:53;;;;;;;;;;;;;;;;;;5123304;27;19912;-72
2022/03/30 13:06:20;;;;;;;;;;;;;;;;;;5141951;27;19915;-72
2022/03/30 13:08:45;;;;;;;;;;;;;;;;;;5141955;27;19915;-72
2022/03/30 13:11:12;;;;;;;;;;;;;;;;;;5141941;27;19961;-72
2022/03/30 13:13:38;;;;;;;;;;;;;;;;;;5141850;27;19965;-72
2022/03/30 13:16:05;;;;;;;;;;;;;;;;;;5141660;27;19912;-72
2022/03/30 13:18:30;;;;;;;;;;;;;;;;;;5141856;27;20293;-72
2022/03/30 13:20:56;;;;;;;;;;;;;;;;;;5141602;27;19952;-72
2022/03/30 13:23:22;;;;;;;;;;;;;;;;;;5141760;27;20316;-72
2022/03/30 13:25:47;;;;;;;;;;;;;;;;;;5141553;27;19994;-72
2022/03/30 13:28:13;;;;;;;;;;;;;;;;;;5141407;27;19908;-72
2022/03/30 13:30:39;;;;;;;;;;;;;;;;;;5141448;27;19915;-72
2022/03/30 13:33:04;;;;;;;;;;;;;;;;;;5124498;27;19964;-72
2022/03/30 13:35:30;;;;;;;;;;;;;;;;;;5141332;27;19908;-72
2022/03/30 13:37:56;;;;;;;;;;;;;;;;;;5141342;27;20251;-72
2022/03/30 13:40:22;;;;;;;;;;;;;;;;;;5140806;27;19914;-71
2022/03/30 13:42:47;;;;;;;;;;;;;;;;;;5141481;27;19914;-71
2022/03/30 13:45:14;;;;;;;;;;;;;;;;;;5122497;27;20225;-71
2022/03/30 13:47:41;;;;;;;;;;;;;;;;;;5141180;27;19907;-71
2022/03/30 13:50:07;;;;;;;;;;;;;;;;;;5141105;27;19914;-71
2022/03/30 13:52:33;;;;;;;;;;;;;;;;;;5140845;27;19919;-71
2022/03/30 13:54:58;;;;;;;;;;;;;;;;;;5141434;27;19919;-71
2022/03/30 13:57:24;;;;;;;;;;;;;;;;;;5140852;27;19912;-71
2022/03/30 13:59:50;;;;;;;;;;;;;;;;;;5140873;27;19915;-71
2022/03/30 14:02:16;;;;;;;;;;;;;;;;;;5140742;27;19907;-71
2022/03/30 14:04:41;;;;;;;;;;;;;;;;;;5141403;27;19907;-71
2022/03/30 14:07:07;;;;;;;;;;;;;;;;;;5140633;27;19908;-71
2022/03/30 14:09:34;;;;;;;;;;;;;;;;;;5122282;27;19912;-71
2022/03/30 14:12:00;;;;;;;;;;;;;;;;;;5140407;27;20225;-71
2022/03/30 14:14:25;;;;;;;;;;;;;;;;;;5140373;27;19908;-71
2022/03/30 14:16:52;;;;;;;;;;;;;;;;;;5140299;27;20229;-71
2022/03/30 14:19:19;;;;;;;;;;;;;;;;;;5121889;27;19961;-71
2022/03/30 14:21:45;;;;;;;;;;;;;;;;;;5140371;27;19950;-71
2022/03/30 14:24:11;;;;;;;;;;;;;;;;;;5138616;27;20328;-71
2022/03/30 14:26:38;;;;;;;;;;;;;;;;;;5122110;27;19994;-71
2022/03/30 14:29:05;;;;;;;;;;;;;;;;;;5139477;27;19915;-71
2022/03/30 14:31:30;;;;;;;;;;;;;;;;;;5121755;27;19915;-71
2022/03/30 14:33:56;;;;;;;;;;;;;;;;;;5139463;27;20287;-71
2022/03/30 14:36:22;;;;;;;;;;;;;;;;;;5140008;27;19907;-71
2022/03/30 14:38:48;;;;;;;;;;;;;;;;;;5140486;27;19908;-71
2022/03/30 14:41:14;;;;;;;;;;;;;;;;;;5121669;27;19908;-71
2022/03/30 14:43:39;;;;;;;;;;;;;;;;;;5139563;27;19907;-71
2022/03/30 14:46:06;;;;;;;;;;;;;;;;;;5139910;27;20250;-71
2022/03/30 14:48:31;;;;;;;;;;;;;;;;;;5139140;27;19907;-71
2022/03/30 14:50:57;;;;;;;;;;;;;;;;;;5139360;27;20328;-71
2022/03/30 14:53:23;;;;;;;;;;;;;;;;;;5139866;27;20026;-71
2022/03/30 14:55:49;;;;;;;;;;;;;;;;;;5139712;27;20092;-71
2022/03/30 14:58:16;;;;;;;;;;;;;;;;;;5139328;27;19908;-71
2022/03/30 15:00:41;;;;;;;;;;;;;;;;;;5104203;27;19907;-71
2022/03/30 15:03:07;;;;;;;;;;;;;;;;;;5139700;27;19915;-71
2022/03/30 15:05:33;;;;;;;;;;;;;;;;;;5139152;27;19912;-71
2022/03/30 15:07:59;;;;;;;;;;;;;;;;;;5139053;27;19912;-71
2022/03/30 15:10:24;;;;;;;;;;;;;;;;;;5139512;27;19907;-71
2022/03/30 15:12:51;;;;;;;;;;;;;;;;;;5139221;27;19968;-71
2022/03/30 15:15:16;;;;;;;;;;;;;;;;;;5139047;27;19907;-71
2022/03/30 15:17:42;;;;;;;;;;;;;;;;;;5138791;27;19911;-71
2022/03/30 15:20:08;;;;;;;;;;;;;;;;;;5139399;27;19907;-71
2022/03/30 15:22:33;;;;;;;;;;;;;;;;;;5139452;27;19932;-71
2022/03/30 15:25:00;;;;;;;;;;;;;;;;;;5139312;27;19914;-71
2022/03/30 15:27:26;;;;;;;;;;;;;;;;;;5138704;27;20227;-71
2022/03/30 15:29:51;;;;;;;;;;;;;;;;;;5138564;27;20036;-71
2022/03/30 15:32:17;;;;;;;;;;;;;;;;;;5139084;27;20063;-71
2022/03/30 15:34:43;;;;;;;;;;;;;;;;;;5121023;27;20283;-71
2022/03/30 15:37:09;;;;;;;;;;;;;;;;;;5139140;27;20002;-72
2022/03/30 15:39:35;;;;;;;;;;;;;;;;;;5139136;27;19986;-72
2022/03/30 15:42:01;;;;;;;;;;;;;;;;;;5138524;27;19942;-72
2022/03/30 15:44:26;;;;;;;;;;;;;;;;;;5139087;27;19932;-72
2022/03/30 15:46:52;;;;;;;;;;;;;;;;;;5139027;27;19907;-71
2022/03/30 15:49:18;;;;;;;;;;;;;;;;;;5138947;27;19907;-73
2022/03/30 15:51:44;;;;;;;;;;;;;;;;;;5138621;27;19922;-71
2022/03/30 15:54:10;;;;;;;;;;;;;;;;;;5120204;27;19960;-71
2022/03/30 15:56:36;;;;;;;;;;;;;;;;;;5139028;27;20266;-71
2022/03/30 15:59:01;;;;;;;;;;;;;;;;;;5120597;27;19922;-71
2022/03/30 16:01:27;;;;;;;;;;;;;;;;;;5138893;27;20036;-71
2022/03/30 16:03:54;;;;;;;;;;;;;;;;;;5138365;28;19911;-71
2022/03/30 16:06:20;;;;;;;;;;;;;;;;;;5138635;28;19907;-71
2022/03/30 16:08:59;;;;;;;;;;;;;;;;;;5140027;28;19949;-71
2022/03/30 16:14:09;;;;;;;;;;;;;;;;;;5138421;28;20304;-71
2022/03/30 16:16:35;;;;;;;;;;;;;;;;;;5138771;28;20040;-71
2022/03/30 16:19:01;;;;;;;;;;;;;;;;;;5138757;28;20309;-71
2022/03/30 16:21:28;;;;;;;;;;;;;;;;;;5138171;28;20000;-71
2022/03/30 16:23:53;;;;;;;;;;;;;;;;;;5139072;27;19911;-71
2022/03/30 16:26:19;;;;;;;;;;;;;;;;;;5141512;27;19908;-71
2022/03/30 16:28:45;;;;;;;;;;;;;;;;;;5142253;27;19961;-71
2022/03/30 16:31:10;;;;;;;;;;;;;;;;;;5142488;27;20021;-71
2022/03/30 16:33:36;;;;;;;;;;;;;;;;;;5142691;27;19931;-71
2022/03/30 16:36:02;;;;;;;;;;;;;;;;;;5124824;27;19907;-71
2022/03/30 16:38:28;;;;;;;;;;;;;;;;;;5142561;27;19946;-71
2022/03/30 16:40:54;;;;;;;;;;;;;;;;;;5142734;27;19949;-71
2022/03/30 16:43:20;;;;;;;;;;;;;;;;;;5141905;27;19914;-71
2022/03/30 16:45:45;;;;;;;;;;;;;;;;;;5142337;27;19912;-71
2022/03/30 16:48:11;;;;;;;;;;;;;;;;;;5141820;27;19907;-72
2022/03/30 16:50:37;;;;;;;;;;;;;;;;;;5142304;27;21789;-71